createdAt,value
2018-03-06T00:01:15.809Z,15.70
2018-03-06T00:02:15.636Z,15.90
2018-03-06T00:04:08.608Z,16.10
2018-03-06T00:05:08.452Z,15.50
2018-03-06T00:07:01.461Z,16.10
2018-03-06T00:08:01.333Z,16.10
2018-03-06T00:09:54.184Z,16.10
2018-03-06T00:10:54.146Z,15.80
2018-03-06T00:12:47.529Z,16.60
2018-03-06T00:13:48.082Z,15.50
2018-03-06T00:15:40.879Z,15.40
2018-03-06T00:16:40.840Z,15.30
2018-03-06T00:18:34.244Z,16.10
2018-03-06T00:19:34.184Z,16.50
2018-03-06T00:21:27.558Z,15.90
2018-03-06T00:22:27.526Z,16.30
2018-03-06T00:24:20.499Z,15.50
2018-03-06T00:25:20.392Z,15.70
2018-03-06T00:27:13.757Z,16.50
2018-03-06T00:28:13.738Z,16.00
2018-03-06T00:30:06.707Z,16.50
2018-03-06T00:31:06.585Z,16.30
2018-03-06T00:32:59.597Z,14.60
2018-03-06T00:33:59.432Z,15.00
2018-03-06T00:35:52.310Z,16.70
2018-03-06T00:36:52.304Z,16.90
2018-03-06T00:38:45.760Z,18.40
2018-03-06T00:39:45.634Z,18.80
2018-03-06T00:41:38.523Z,15.80
2018-03-06T00:42:38.490Z,15.80
2018-03-06T00:44:31.478Z,16.10
2018-03-06T00:45:31.338Z,16.20
2018-03-06T00:47:24.909Z,17.00
2018-03-06T00:48:24.716Z,17.00
2018-03-06T00:50:18.172Z,16.00
2018-03-06T00:51:18.070Z,15.80
2018-03-06T00:53:10.923Z,16.10
2018-03-06T00:54:11.470Z,17.40
2018-03-06T00:56:03.771Z,16.20
2018-03-06T00:57:03.768Z,16.40
2018-03-06T00:58:57.128Z,15.40
2018-03-06T00:59:57.675Z,16.10
2018-03-06T01:01:50.540Z,16.30
2018-03-06T01:02:49.957Z,16.00
2018-03-06T01:04:42.856Z,15.60
2018-03-06T01:05:42.798Z,17.20
2018-03-06T01:07:36.158Z,16.10
2018-03-06T01:08:36.146Z,17.20
2018-03-06T01:10:29.710Z,16.60
2018-03-06T01:11:29.480Z,16.40
2018-03-06T01:13:22.860Z,16.30
2018-03-06T01:14:22.852Z,16.90
2018-03-06T01:16:16.355Z,16.00
2018-03-06T01:17:16.161Z,17.40
2018-03-06T01:19:09.229Z,17.10
2018-03-06T01:20:09.014Z,18.10
2018-03-06T01:22:02.533Z,19.20
2018-03-06T01:23:02.353Z,19.50
2018-03-06T01:24:55.242Z,17.30
2018-03-06T01:25:55.215Z,19.00
2018-03-06T01:27:48.091Z,20.60
2018-03-06T01:28:48.065Z,20.00
2018-03-06T01:30:41.442Z,20.70
2018-03-06T01:31:41.415Z,20.40
2018-03-06T01:33:34.335Z,20.10
2018-03-06T01:34:34.353Z,19.30
2018-03-06T01:36:27.347Z,18.00
2018-03-06T01:37:27.714Z,19.60
2018-03-06T01:39:20.114Z,17.50
2018-03-06T01:40:19.998Z,17.70
2018-03-06T01:42:12.989Z,18.10
2018-03-06T01:43:12.867Z,17.30
2018-03-06T01:45:06.352Z,18.40
2018-03-06T01:46:06.223Z,18.00
2018-03-06T01:47:59.586Z,19.40
2018-03-06T01:48:59.526Z,20.40
2018-03-06T01:50:53.069Z,20.00
2018-03-06T01:51:52.889Z,19.30
2018-03-06T01:53:46.250Z,19.80
2018-03-06T01:54:46.219Z,20.10
2018-03-06T01:56:39.878Z,21.60
2018-03-06T01:57:39.067Z,22.30
2018-03-06T01:59:32.126Z,24.30
2018-03-06T02:00:31.918Z,24.80
2018-03-06T02:02:25.309Z,22.70
2018-03-06T02:03:25.277Z,23.90
2018-03-06T02:05:18.886Z,22.90
2018-03-06T02:06:18.654Z,21.60
2018-03-06T02:08:12.147Z,21.60
2018-03-06T02:09:11.963Z,21.70
2018-03-06T02:11:04.983Z,21.00
2018-03-06T02:12:04.834Z,21.30
2018-03-06T02:13:57.796Z,21.30
2018-03-06T02:14:57.669Z,21.40
2018-03-06T02:16:50.552Z,22.70
2018-03-06T02:17:51.147Z,23.50
2018-03-06T02:19:44.000Z,21.40
2018-03-06T02:20:43.855Z,21.20
2018-03-06T02:22:37.817Z,23.60
2018-03-06T02:23:37.205Z,22.30
2018-03-06T02:25:30.114Z,23.30
2018-03-06T02:26:30.075Z,22.90
2018-03-06T02:28:23.118Z,22.10
2018-03-06T02:29:22.916Z,20.70
2018-03-06T02:31:16.516Z,22.30
2018-03-06T02:32:16.293Z,21.50
2018-03-06T02:34:09.130Z,23.00
2018-03-06T02:35:09.108Z,22.60
2018-03-06T02:37:02.695Z,22.70
2018-03-06T02:38:02.607Z,23.40
2018-03-06T02:39:55.541Z,22.60
2018-03-06T02:40:55.305Z,22.30
2018-03-06T02:42:48.713Z,22.60
2018-03-06T02:43:48.657Z,21.50
2018-03-06T02:45:42.131Z,23.80
2018-03-06T02:46:41.524Z,26.00
2018-03-06T02:48:34.675Z,23.70
2018-03-06T02:49:34.959Z,22.10
2018-03-06T02:51:27.955Z,23.00
2018-03-06T02:52:27.721Z,23.30
2018-03-06T02:54:20.828Z,22.80
2018-03-06T02:55:21.180Z,22.20
2018-03-06T02:57:13.459Z,23.20
2018-03-06T02:58:13.428Z,23.30
2018-03-06T03:00:06.811Z,23.20
2018-03-06T03:01:06.768Z,22.60
2018-03-06T03:02:59.676Z,22.40
2018-03-06T03:03:59.643Z,22.20
2018-03-06T03:05:52.540Z,22.00
2018-03-06T03:06:52.484Z,21.50
2018-03-06T03:08:45.895Z,22.50
2018-03-06T03:09:45.860Z,22.10
2018-03-06T03:11:39.251Z,23.60
2018-03-06T03:12:39.244Z,22.40
2018-03-06T03:14:32.208Z,21.80
2018-03-06T03:15:32.093Z,21.00
2018-03-06T03:17:25.432Z,21.70
2018-03-06T03:18:25.405Z,20.40
2018-03-06T03:20:18.940Z,20.50
2018-03-06T03:21:18.746Z,19.90
2018-03-06T03:23:11.630Z,20.30
2018-03-06T03:24:11.591Z,20.60
2018-03-06T03:26:04.857Z,23.20
2018-03-06T03:27:04.446Z,23.30
2018-03-06T03:28:57.333Z,22.40
2018-03-06T03:29:57.306Z,22.10
2018-03-06T03:31:50.189Z,21.80
2018-03-06T03:32:50.156Z,20.80
2018-03-06T03:34:43.072Z,20.00
2018-03-06T03:35:43.041Z,22.00
2018-03-06T03:37:36.398Z,22.40
2018-03-06T03:38:36.373Z,22.60
2018-03-06T03:40:29.257Z,21.80
2018-03-06T03:41:29.264Z,22.20
2018-03-06T03:43:23.191Z,23.90
2018-03-06T03:44:22.563Z,23.40
2018-03-06T03:46:15.457Z,23.50
2018-03-06T03:47:15.434Z,23.60
2018-03-06T03:49:08.863Z,23.60
2018-03-06T03:50:08.812Z,23.00
2018-03-06T03:52:02.190Z,23.80
2018-03-06T03:53:02.152Z,23.80
2018-03-06T03:54:55.796Z,24.20
2018-03-06T03:55:55.503Z,23.90
2018-03-06T03:57:48.446Z,25.60
2018-03-06T03:58:48.394Z,23.20
2018-03-06T04:00:41.331Z,22.70
2018-03-06T04:01:41.245Z,21.90
2018-03-06T04:03:36.780Z,22.70
2018-03-06T04:04:36.439Z,23.20
2018-03-06T04:06:29.585Z,23.40
2018-03-06T04:07:29.306Z,23.90
2018-03-06T04:09:22.751Z,25.90
2018-03-06T04:10:22.666Z,26.30
2018-03-06T04:12:16.059Z,34.00
2018-03-06T04:13:16.025Z,31.70
2018-03-06T04:15:10.455Z,26.40
2018-03-06T04:16:10.379Z,27.20
2018-03-06T04:18:03.796Z,23.90
2018-03-06T04:19:03.710Z,24.20
2018-03-06T04:20:56.618Z,22.20
2018-03-06T04:21:56.584Z,22.40
2018-03-06T04:23:50.023Z,22.20
2018-03-06T04:24:49.928Z,21.20
2018-03-06T04:26:42.865Z,21.60
2018-03-06T04:27:42.761Z,22.10
2018-03-06T04:29:35.724Z,24.10
2018-03-06T04:30:35.620Z,24.70
2018-03-06T04:32:28.509Z,24.60
2018-03-06T04:33:28.490Z,23.50
2018-03-06T04:35:21.420Z,22.50
2018-03-06T04:36:21.332Z,22.80
2018-03-06T04:38:14.773Z,23.50
2018-03-06T04:39:14.672Z,25.50
2018-03-06T04:41:07.588Z,29.70
2018-03-06T04:42:07.532Z,30.90
2018-03-06T04:44:00.415Z,26.30
2018-03-06T04:45:00.398Z,25.30
2018-03-06T04:46:53.272Z,25.40
2018-03-06T04:47:53.238Z,24.00
2018-03-06T04:49:46.307Z,23.40
2018-03-06T04:50:46.103Z,22.50
2018-03-06T04:54:32.130Z,21.80
2018-03-06T04:55:11.039Z,22.80
2018-03-06T04:57:04.410Z,22.30
2018-03-06T04:58:04.386Z,21.90
2018-03-06T04:59:57.326Z,22.90
2018-03-06T05:00:57.284Z,23.50
2018-03-06T05:02:50.351Z,23.00
2018-03-06T05:03:50.690Z,22.60
2018-03-06T05:05:43.094Z,22.40
2018-03-06T05:06:42.952Z,22.30
2018-03-06T05:08:35.853Z,23.40
2018-03-06T05:09:35.820Z,23.40
2018-03-06T05:11:29.193Z,22.20
2018-03-06T05:12:29.150Z,21.70
2018-03-06T05:14:22.673Z,23.20
2018-03-06T05:15:22.549Z,23.10
2018-03-06T05:17:16.021Z,23.40
2018-03-06T05:18:15.862Z,24.30
2018-03-06T05:20:09.332Z,24.50
2018-03-06T05:21:09.232Z,26.00
2018-03-06T05:23:02.191Z,24.70
2018-03-06T05:24:02.646Z,24.50
2018-03-06T05:25:55.248Z,23.40
2018-03-06T05:26:54.976Z,23.20
2018-03-06T05:28:49.798Z,24.90
2018-03-06T05:29:47.788Z,24.90
2018-03-06T05:31:40.722Z,23.70
2018-03-06T05:32:40.653Z,23.70
2018-03-06T05:34:33.714Z,24.00
2018-03-06T05:35:33.493Z,25.00
2018-03-06T05:37:26.416Z,25.40
2018-03-06T05:38:26.354Z,25.30
2018-03-06T05:40:19.310Z,25.60
2018-03-06T05:41:19.225Z,25.60
2018-03-06T05:43:12.885Z,25.30
2018-03-06T05:44:12.550Z,25.30
2018-03-06T05:46:05.933Z,25.00
2018-03-06T05:47:05.929Z,25.40
2018-03-06T05:48:58.795Z,26.20
2018-03-06T05:49:58.768Z,25.80
2018-03-06T05:51:52.316Z,27.00
2018-03-06T05:52:52.131Z,27.50
2018-03-06T05:54:45.024Z,28.40
2018-03-06T05:55:45.561Z,27.90
2018-03-06T05:57:37.866Z,28.30
2018-03-06T05:58:37.837Z,28.90
2018-03-06T06:00:30.789Z,30.70
2018-03-06T06:01:30.719Z,28.60
2018-03-06T06:03:23.623Z,29.90
2018-03-06T06:04:23.553Z,30.80
2018-03-06T06:06:16.971Z,30.30
2018-03-06T06:07:16.913Z,29.40
2018-03-06T06:09:09.800Z,29.90
2018-03-06T06:10:09.768Z,29.70
2018-03-06T06:12:02.655Z,29.20
2018-03-06T06:13:02.650Z,29.30
2018-03-06T06:14:56.086Z,30.40
2018-03-06T06:15:56.018Z,30.20
2018-03-06T06:17:51.931Z,28.40
2018-03-06T06:18:48.828Z,28.00
2018-03-06T06:20:42.205Z,28.20
2018-03-06T06:21:42.175Z,28.30
2018-03-06T06:23:35.780Z,27.80
2018-03-06T06:24:35.575Z,29.00
2018-03-06T06:26:44.020Z,29.40
2018-03-06T06:27:43.514Z,29.60
2018-03-06T06:29:41.978Z,28.40
2018-03-06T06:30:37.811Z,28.40
2018-03-06T06:32:31.593Z,29.00
2018-03-06T06:33:31.242Z,28.80
2018-03-06T06:35:23.950Z,28.30
2018-03-06T06:36:23.586Z,26.80
2018-03-06T06:38:18.842Z,29.70
2018-03-06T06:39:17.325Z,29.60
2018-03-06T06:41:11.485Z,29.20
2018-03-06T06:42:10.883Z,29.60
2018-03-06T06:44:03.725Z,28.90
2018-03-06T06:45:03.666Z,30.00
2018-03-06T06:46:56.664Z,31.10
2018-03-06T06:47:56.490Z,31.00
2018-03-06T06:49:49.518Z,32.40
2018-03-06T06:50:49.342Z,31.10
2018-03-06T06:52:42.962Z,32.40
2018-03-06T06:53:42.728Z,32.10
2018-03-06T06:55:36.650Z,31.70
2018-03-06T06:56:36.610Z,32.00
2018-03-06T06:58:29.521Z,31.20
2018-03-06T06:59:29.536Z,31.20
2018-03-06T07:01:22.389Z,32.80
2018-03-06T07:02:22.930Z,31.80
2018-03-06T07:04:15.979Z,32.50
2018-03-06T07:05:15.700Z,32.00
2018-03-06T07:07:08.840Z,31.60
2018-03-06T07:08:09.157Z,32.00
2018-03-06T07:10:02.165Z,32.50
2018-03-06T07:11:01.947Z,30.70
2018-03-06T07:12:55.339Z,32.10
2018-03-06T07:13:55.281Z,32.70
2018-03-06T07:15:48.790Z,33.20
2018-03-06T07:16:48.645Z,31.80
2018-03-06T07:18:42.282Z,31.60
2018-03-06T07:19:41.995Z,32.00
2018-03-06T07:21:35.592Z,32.30
2018-03-06T07:22:34.854Z,31.70
2018-03-06T07:24:27.881Z,31.40
2018-03-06T07:25:27.727Z,33.20
2018-03-06T07:27:20.767Z,31.90
2018-03-06T07:28:20.568Z,32.50
2018-03-06T07:30:13.582Z,31.60
2018-03-06T07:31:13.432Z,31.10
2018-03-06T07:33:06.336Z,31.80
2018-03-06T07:34:06.312Z,31.90
2018-03-06T07:35:59.882Z,32.40
2018-03-06T07:36:59.685Z,31.50
2018-03-06T07:38:52.530Z,32.40
2018-03-06T07:39:52.497Z,32.60
2018-03-06T07:41:46.099Z,30.80
2018-03-06T07:42:45.883Z,32.20
2018-03-06T07:44:38.929Z,31.60
2018-03-06T07:45:38.712Z,30.70
2018-03-06T07:47:32.122Z,32.50
2018-03-06T07:48:32.069Z,32.50
2018-03-06T07:50:25.108Z,32.10
2018-03-06T07:51:24.924Z,33.60
2018-03-06T07:53:17.912Z,31.80
2018-03-06T07:54:17.786Z,31.50
2018-03-06T07:56:10.918Z,32.20
2018-03-06T07:57:10.674Z,31.60
2018-03-06T07:59:04.228Z,32.20
2018-03-06T08:00:04.024Z,31.20
2018-03-06T08:01:57.110Z,31.60
2018-03-06T08:02:56.868Z,31.80
2018-03-06T08:04:50.008Z,31.60
2018-03-06T08:05:49.740Z,31.20
2018-03-06T08:07:42.777Z,32.20
2018-03-06T08:08:42.592Z,33.30
2018-03-06T08:10:35.712Z,31.00
2018-03-06T08:11:35.441Z,31.30
2018-03-06T08:13:28.909Z,33.10
2018-03-06T08:14:28.797Z,32.20
2018-03-06T08:16:21.844Z,32.30
2018-03-06T08:17:21.692Z,31.60
2018-03-06T08:19:14.537Z,33.40
2018-03-06T08:20:14.522Z,33.80
2018-03-06T08:22:08.003Z,31.20
2018-03-06T08:23:07.678Z,31.50
2018-03-06T08:25:00.747Z,32.40
2018-03-06T08:26:00.516Z,32.10
2018-03-06T08:27:53.975Z,33.00
2018-03-06T08:28:53.895Z,32.60
2018-03-06T08:30:47.358Z,32.80
2018-03-06T08:31:47.282Z,33.40
2018-03-06T08:33:40.205Z,33.30
2018-03-06T08:34:40.144Z,33.10
2018-03-06T08:36:33.769Z,33.10
2018-03-06T08:37:33.505Z,32.30
2018-03-06T08:39:26.892Z,34.80
2018-03-06T08:40:26.866Z,33.80
2018-03-06T08:42:19.892Z,33.30
2018-03-06T08:43:19.762Z,33.90
2018-03-06T08:45:12.607Z,33.40
2018-03-06T08:46:12.587Z,34.40
2018-03-06T08:48:06.142Z,34.30
2018-03-06T08:49:05.944Z,35.10
2018-03-06T08:50:59.046Z,35.80
2018-03-06T08:51:58.824Z,34.20
2018-03-06T08:53:52.190Z,35.20
2018-03-06T08:54:52.177Z,35.90
2018-03-06T08:56:45.537Z,33.70
2018-03-06T08:57:46.095Z,34.80
2018-03-06T08:59:39.957Z,35.80
2018-03-06T09:00:38.398Z,36.60
2018-03-06T09:02:31.294Z,36.50
2018-03-06T09:03:31.282Z,35.90
2018-03-06T09:05:24.695Z,36.40
2018-03-06T09:06:24.145Z,35.20
2018-03-06T09:08:17.127Z,35.30
2018-03-06T09:09:17.096Z,36.40
2018-03-06T09:11:09.988Z,35.90
2018-03-06T09:12:09.998Z,35.90
2018-03-06T09:14:03.026Z,36.00
2018-03-06T09:15:02.816Z,37.10
2018-03-06T09:16:55.691Z,36.00
2018-03-06T09:17:55.671Z,35.40
2018-03-06T09:19:48.745Z,35.60
2018-03-06T09:20:48.535Z,35.50
2018-03-06T09:22:42.087Z,36.90
2018-03-06T09:23:41.883Z,34.30
2018-03-06T09:25:34.938Z,37.30
2018-03-06T09:26:34.751Z,37.00
2018-03-06T09:28:28.167Z,35.80
2018-03-06T09:29:28.123Z,35.70
2018-03-06T09:31:21.568Z,36.80
2018-03-06T09:32:20.992Z,36.00
2018-03-06T09:34:16.113Z,35.00
2018-03-06T09:35:15.343Z,35.20
2018-03-06T09:37:08.399Z,35.80
2018-03-06T09:38:08.206Z,35.50
2018-03-06T09:40:02.335Z,35.10
2018-03-06T09:41:02.170Z,34.70
2018-03-06T09:42:55.812Z,35.50
2018-03-06T09:43:55.023Z,35.30
2018-03-06T09:45:48.589Z,34.00
2018-03-06T09:46:48.386Z,34.70
2018-03-06T09:48:41.403Z,34.70
2018-03-06T09:49:41.248Z,35.00
2018-03-06T09:51:35.409Z,35.20
2018-03-06T09:52:34.640Z,34.10
2018-03-06T09:54:27.683Z,34.30
2018-03-06T09:55:27.484Z,34.90
2018-03-06T09:57:21.072Z,34.30
2018-03-06T09:58:20.840Z,34.00
2018-03-06T10:00:14.529Z,34.20
2018-03-06T10:01:14.189Z,33.90
2018-03-06T10:03:07.184Z,34.10
2018-03-06T10:04:07.067Z,34.20
2018-03-06T10:06:00.699Z,34.10
2018-03-06T10:06:59.941Z,35.10
2018-03-06T10:08:54.160Z,34.80
2018-03-06T10:09:53.309Z,34.30
2018-03-06T10:11:46.973Z,35.10
2018-03-06T10:12:46.656Z,35.20
2018-03-06T10:14:40.239Z,33.30
2018-03-06T10:15:40.017Z,34.90
2018-03-06T10:17:33.570Z,33.30
2018-03-06T10:18:33.384Z,34.70
2018-03-06T10:20:26.948Z,32.90
2018-03-06T10:21:26.740Z,33.40
2018-03-06T10:23:19.705Z,34.30
2018-03-06T10:24:19.871Z,33.60
2018-03-06T10:26:13.071Z,34.00
2018-03-06T10:27:13.032Z,33.20
2018-03-06T10:29:06.116Z,32.60
2018-03-06T10:30:05.940Z,33.90
2018-03-06T10:31:59.252Z,33.00
2018-03-06T10:32:58.758Z,32.70
2018-03-06T10:34:51.673Z,32.70
2018-03-06T10:35:51.635Z,34.30
2018-03-06T10:37:44.540Z,32.70
2018-03-06T10:38:44.507Z,33.50
2018-03-06T10:40:37.405Z,33.80
2018-03-06T10:41:37.391Z,32.60
2018-03-06T10:43:30.461Z,32.50
2018-03-06T10:44:30.271Z,33.20
2018-03-06T10:46:23.850Z,33.20
2018-03-06T10:47:23.618Z,33.00
2018-03-06T10:49:16.510Z,32.00
2018-03-06T10:50:16.504Z,32.50
2018-03-06T10:52:09.552Z,33.70
2018-03-06T10:53:09.353Z,33.60
2018-03-06T10:55:02.807Z,32.00
2018-03-06T10:56:02.745Z,33.30
2018-03-06T10:57:56.430Z,33.10
2018-03-06T10:58:56.670Z,33.30
2018-03-06T11:00:49.672Z,30.60
2018-03-06T11:01:49.457Z,31.30
2018-03-06T11:03:42.939Z,32.10
2018-03-06T11:04:42.830Z,32.60
2018-03-06T11:06:35.761Z,32.40
2018-03-06T11:07:35.697Z,32.10
2018-03-06T11:09:29.102Z,30.10
2018-03-06T11:10:28.569Z,30.40
2018-03-06T11:12:21.958Z,31.50
2018-03-06T11:13:21.924Z,31.00
2018-03-06T11:15:15.010Z,32.70
2018-03-06T11:16:14.808Z,31.90
2018-03-06T11:18:08.199Z,32.80
2018-03-06T11:19:08.152Z,31.40
2018-03-06T11:21:01.795Z,31.10
2018-03-06T11:22:01.539Z,31.80
2018-03-06T11:23:55.115Z,29.90
2018-03-06T11:24:54.884Z,29.90
2018-03-06T11:26:47.954Z,30.00
2018-03-06T11:27:47.770Z,29.50
2018-03-06T11:29:40.942Z,29.30
2018-03-06T11:30:40.823Z,30.10
2018-03-06T11:32:34.322Z,29.20
2018-03-06T11:33:34.016Z,29.80
2018-03-06T11:35:27.068Z,31.60
2018-03-06T11:36:26.881Z,29.30
2018-03-06T11:38:20.316Z,29.10
2018-03-06T11:39:20.253Z,29.70
2018-03-06T11:41:13.439Z,30.20
2018-03-06T11:42:13.142Z,29.20
2018-03-06T11:44:06.222Z,30.20
2018-03-06T11:45:06.028Z,29.90
2018-03-06T11:46:59.130Z,28.70
2018-03-06T11:47:58.886Z,29.40
2018-03-06T11:49:52.487Z,30.60
2018-03-06T11:50:52.249Z,28.80
2018-03-06T11:52:45.154Z,28.00
2018-03-06T11:53:45.106Z,29.30
2018-03-06T11:55:38.298Z,28.80
2018-03-06T11:56:38.217Z,29.00
2018-03-06T11:58:31.635Z,29.30
2018-03-06T11:59:31.384Z,28.30
2018-03-06T12:01:24.479Z,28.00
2018-03-06T12:02:24.242Z,26.30
2018-03-06T12:04:18.199Z,28.60
2018-03-06T12:05:17.608Z,28.00
2018-03-06T12:07:11.285Z,27.50
2018-03-06T12:08:11.035Z,28.40
2018-03-06T12:10:04.259Z,27.90
2018-03-06T12:11:03.957Z,28.20
2018-03-06T12:12:57.571Z,27.10
2018-03-06T12:13:57.338Z,28.50
2018-03-06T12:15:50.941Z,28.40
2018-03-06T12:16:50.697Z,27.30
2018-03-06T12:18:43.795Z,27.20
2018-03-06T12:19:44.148Z,25.80
2018-03-06T12:21:37.970Z,26.10
2018-03-06T12:22:37.933Z,25.90
2018-03-06T12:24:31.156Z,26.00
2018-03-06T12:25:30.832Z,26.40
2018-03-06T12:27:24.195Z,25.00
2018-03-06T12:28:24.190Z,25.20
2018-03-06T12:30:17.816Z,23.80
2018-03-06T12:31:17.567Z,24.60
2018-03-06T12:33:10.967Z,23.70
2018-03-06T12:34:10.746Z,25.30
2018-03-06T12:36:03.945Z,25.30
2018-03-06T12:37:03.627Z,24.30
2018-03-06T12:38:56.999Z,22.30
2018-03-06T12:39:57.267Z,26.70
2018-03-06T12:41:50.383Z,25.20
2018-03-06T12:42:50.350Z,25.20
2018-03-06T12:44:43.771Z,29.40
2018-03-06T12:45:43.986Z,30.30
2018-03-06T12:47:37.142Z,24.80
2018-03-06T12:48:37.089Z,25.80
2018-03-06T12:50:30.211Z,23.90
2018-03-06T12:51:30.533Z,25.00
2018-03-06T12:53:23.610Z,23.00
2018-03-06T12:54:23.345Z,23.70
2018-03-06T12:56:17.031Z,23.70
2018-03-06T12:57:16.712Z,24.20
2018-03-06T12:59:09.718Z,22.90
2018-03-06T13:00:09.703Z,23.30
2018-03-06T13:02:03.471Z,21.50
2018-03-06T13:03:02.615Z,21.30
2018-03-06T13:04:56.252Z,18.00
2018-03-06T13:05:56.003Z,18.40
2018-03-06T13:07:49.132Z,17.70
2018-03-06T13:08:48.829Z,17.20
2018-03-06T13:10:42.462Z,16.30
2018-03-06T13:11:42.202Z,17.70
2018-03-06T13:13:35.937Z,17.10
2018-03-06T13:14:35.683Z,17.10
2018-03-06T13:16:28.827Z,17.20
2018-03-06T13:17:28.465Z,16.50
2018-03-06T13:19:21.605Z,16.40
2018-03-06T13:20:21.369Z,15.80
2018-03-06T13:22:14.488Z,18.00
2018-03-06T13:23:14.261Z,17.90
2018-03-06T13:25:07.642Z,20.80
2018-03-06T13:26:07.582Z,20.60
2018-03-06T13:28:01.247Z,21.00
2018-03-06T13:29:00.964Z,21.20
2018-03-06T13:30:54.603Z,20.70
2018-03-06T13:31:54.376Z,21.40
2018-03-06T13:33:48.044Z,20.90
2018-03-06T13:34:47.789Z,22.40
2018-03-06T13:36:41.985Z,19.90
2018-03-06T13:37:41.143Z,19.40
2018-03-06T13:39:34.353Z,21.00
2018-03-06T13:40:34.005Z,20.40
2018-03-06T13:42:27.607Z,20.00
2018-03-06T13:43:27.383Z,20.20
2018-03-06T13:45:20.476Z,22.10
2018-03-06T13:46:20.533Z,23.30
2018-03-06T13:48:13.926Z,23.20
2018-03-06T13:49:13.633Z,22.80
2018-03-06T13:51:07.278Z,22.40
2018-03-06T13:52:07.035Z,22.50
2018-03-06T13:54:00.176Z,22.80
2018-03-06T13:54:59.923Z,22.60
2018-03-06T13:56:54.233Z,23.00
2018-03-06T13:57:52.957Z,23.40
2018-03-06T13:59:45.945Z,23.00
2018-03-06T14:00:45.651Z,22.70
2018-03-06T14:02:39.096Z,23.80
2018-03-06T14:03:39.030Z,22.90
2018-03-06T14:05:32.194Z,22.20
2018-03-06T14:06:31.900Z,23.40
2018-03-06T14:08:25.035Z,24.20
2018-03-06T14:09:24.805Z,23.10
2018-03-06T14:11:19.002Z,23.10
2018-03-06T14:12:18.746Z,22.40
2018-03-06T14:14:11.922Z,23.50
2018-03-06T14:15:11.613Z,23.90
2018-03-06T14:17:04.840Z,23.40
2018-03-06T14:18:04.519Z,23.30
2018-03-06T14:19:57.377Z,22.60
2018-03-06T14:20:58.094Z,22.50
2018-03-06T14:22:51.019Z,22.90
2018-03-06T14:23:50.755Z,23.70
2018-03-06T14:25:43.846Z,22.90
2018-03-06T14:26:43.599Z,22.60
2018-03-06T14:28:37.002Z,23.70
2018-03-06T14:29:36.992Z,22.30
2018-03-06T14:31:30.165Z,23.30
2018-03-06T14:32:29.909Z,23.10
2018-03-06T14:34:23.521Z,23.40
2018-03-06T14:35:23.216Z,22.40
2018-03-06T14:37:17.911Z,21.60
2018-03-06T14:38:16.606Z,22.00
2018-03-06T14:40:09.779Z,21.00
2018-03-06T14:41:10.277Z,22.40
2018-03-06T14:43:02.556Z,22.90
2018-03-06T14:44:02.375Z,21.70
2018-03-06T14:45:55.987Z,22.30
2018-03-06T14:46:56.044Z,22.10
2018-03-06T14:48:49.245Z,22.50
2018-03-06T14:49:49.104Z,22.50
2018-03-06T14:51:42.245Z,22.30
2018-03-06T14:52:41.965Z,21.60
2018-03-06T14:55:26.453Z,20.90
2018-03-06T14:56:26.276Z,20.30
2018-03-06T14:58:19.979Z,20.60
2018-03-06T14:59:19.319Z,20.50
2018-03-06T15:01:13.051Z,21.60
2018-03-06T15:02:12.690Z,21.90
2018-03-06T15:04:06.278Z,23.60
2018-03-06T15:05:06.075Z,22.90
2018-03-06T15:06:58.977Z,22.70
2018-03-06T15:07:59.166Z,23.40
2018-03-06T15:09:52.695Z,23.00
2018-03-06T15:10:52.304Z,23.00
2018-03-06T15:12:46.710Z,23.60
2018-03-06T15:13:46.237Z,22.60
2018-03-06T15:15:39.405Z,21.80
2018-03-06T15:16:39.166Z,22.80
2018-03-06T15:18:32.790Z,22.30
2018-03-06T15:19:32.492Z,22.60
2018-03-06T15:21:25.641Z,24.90
2018-03-06T15:22:25.384Z,23.40
2018-03-06T15:24:18.272Z,24.20
2018-03-06T15:25:18.274Z,24.20
2018-03-06T15:27:11.405Z,22.80
2018-03-06T15:28:11.127Z,23.00
2018-03-06T15:30:04.557Z,23.30
2018-03-06T15:31:04.748Z,23.60
2018-03-06T15:32:58.688Z,22.80
2018-03-06T15:33:57.862Z,23.20
2018-03-06T15:35:51.546Z,24.20
2018-03-06T15:36:51.248Z,23.90
2018-03-06T15:38:44.476Z,24.20
2018-03-06T15:39:44.201Z,23.70
2018-03-06T15:41:37.448Z,23.40
2018-03-06T15:42:37.131Z,24.70
2018-03-06T15:44:31.134Z,23.50
2018-03-06T15:45:30.576Z,25.70
2018-03-06T15:47:23.412Z,24.80
2018-03-06T15:48:23.387Z,24.50
2018-03-06T15:50:17.035Z,24.90
2018-03-06T15:51:16.884Z,24.40
2018-03-06T15:53:09.737Z,23.70
2018-03-06T15:54:09.628Z,24.80
2018-03-06T15:56:03.583Z,24.10
2018-03-06T15:57:03.009Z,24.00
2018-03-06T15:58:56.001Z,23.60
2018-03-06T15:59:56.173Z,23.90
2018-03-06T16:01:48.829Z,24.10
2018-03-06T16:02:49.587Z,23.60
2018-03-06T16:04:41.965Z,24.80
2018-03-06T16:05:41.722Z,23.80
2018-03-06T16:07:35.041Z,23.90
2018-03-06T16:08:35.273Z,23.70
2018-03-06T16:10:27.987Z,24.80
2018-03-06T16:11:27.888Z,24.20
2018-03-06T16:13:20.787Z,24.40
2018-03-06T16:14:21.354Z,24.80
2018-03-06T16:16:13.920Z,25.30
2018-03-06T16:17:13.643Z,26.10
2018-03-06T16:19:06.832Z,24.90
2018-03-06T16:20:06.545Z,24.30
2018-03-06T16:21:59.907Z,25.00
2018-03-06T16:22:59.891Z,24.70
2018-03-06T16:24:53.382Z,27.00
2018-03-06T16:25:53.250Z,27.00
2018-03-06T16:27:47.074Z,25.20
2018-03-06T16:28:46.631Z,24.80
2018-03-06T16:30:39.506Z,25.20
2018-03-06T16:31:39.487Z,25.50
2018-03-06T16:33:32.436Z,23.30
2018-03-06T16:34:32.378Z,25.30
2018-03-06T16:36:26.019Z,26.40
2018-03-06T16:37:25.741Z,29.40
2018-03-06T16:39:18.671Z,29.30
2018-03-06T16:40:18.634Z,29.10
2018-03-06T16:42:11.742Z,28.20
2018-03-06T16:43:11.491Z,29.40
2018-03-06T16:45:04.918Z,26.80
2018-03-06T16:46:04.866Z,26.10
2018-03-06T16:47:57.781Z,25.90
2018-03-06T16:48:57.771Z,25.30
2018-03-06T16:50:50.653Z,25.60
2018-03-06T16:51:51.269Z,25.10
2018-03-06T16:53:43.847Z,25.10
2018-03-06T16:54:43.553Z,25.70
2018-03-06T16:57:28.172Z,25.10
2018-03-06T16:58:27.459Z,24.90
2018-03-06T17:00:20.607Z,26.50
2018-03-06T17:01:20.352Z,26.90
2018-03-06T17:03:15.073Z,26.70
2018-03-06T17:04:13.211Z,26.70
2018-03-06T17:06:06.328Z,26.00
2018-03-06T17:07:06.066Z,25.30
2018-03-06T17:09:00.769Z,26.80
2018-03-06T17:09:59.451Z,27.40
2018-03-06T17:11:52.601Z,25.40
2018-03-06T17:12:52.353Z,25.30
2018-03-06T17:14:46.265Z,23.90
2018-03-06T17:15:47.464Z,22.50
2018-03-06T17:17:39.478Z,21.80
2018-03-06T17:18:39.117Z,22.20
2018-03-06T17:20:32.542Z,20.60
2018-03-06T17:21:32.287Z,20.60
2018-03-06T17:23:25.780Z,19.90
2018-03-06T17:24:25.340Z,19.50
2018-03-06T17:26:20.127Z,19.30
2018-03-06T17:27:19.918Z,19.10
2018-03-06T17:30:03.549Z,18.50
2018-03-06T17:31:04.163Z,19.30
2018-03-06T17:32:56.129Z,18.80
2018-03-06T17:33:56.075Z,18.30
2018-03-06T17:35:49.746Z,19.20
2018-03-06T17:36:49.705Z,17.80
2018-03-06T17:38:42.622Z,19.10
2018-03-06T17:39:42.286Z,20.20
2018-03-06T17:41:35.699Z,20.00
2018-03-06T17:42:35.652Z,20.20
2018-03-06T17:44:28.833Z,19.20
2018-03-06T17:45:28.792Z,18.30
2018-03-06T17:47:21.896Z,19.30
2018-03-06T17:48:21.880Z,18.80
2018-03-06T17:50:14.913Z,19.60
2018-03-06T17:51:14.869Z,19.80
2018-03-06T17:53:08.435Z,18.40
2018-03-06T17:54:08.186Z,18.50
2018-03-06T17:56:52.152Z,17.40
2018-03-06T17:57:52.305Z,17.50
2018-03-06T17:59:46.108Z,17.80
2018-03-06T18:00:44.964Z,17.80
2018-03-06T18:02:38.941Z,17.20
2018-03-06T18:03:39.394Z,17.90
2018-03-06T18:05:33.676Z,17.60
2018-03-06T18:06:32.259Z,18.20
2018-03-06T18:08:25.916Z,17.80
2018-03-06T18:09:25.621Z,18.00
2018-03-06T18:12:09.868Z,18.50
2018-03-06T18:13:09.651Z,17.40
2018-03-06T18:15:03.426Z,17.40
2018-03-06T18:16:04.071Z,17.10
2018-03-06T18:17:57.632Z,17.70
2018-03-06T18:18:57.633Z,18.40
2018-03-06T18:20:50.175Z,18.10
2018-03-06T18:21:49.826Z,17.10
2018-03-06T18:23:51.642Z,18.20
2018-03-06T18:24:43.584Z,17.90
2018-03-06T18:26:37.753Z,17.20
2018-03-06T18:27:37.526Z,17.90
2018-03-06T18:29:34.618Z,17.70
2018-03-06T18:31:44.309Z,18.30
2018-03-06T18:32:43.929Z,18.00
2018-03-06T18:34:40.750Z,18.00
2018-03-06T18:35:37.538Z,17.30
2018-03-06T18:37:31.792Z,18.40
2018-03-06T18:38:31.706Z,18.10
2018-03-06T18:40:24.686Z,19.10
2018-03-06T18:41:24.246Z,18.70